Time;durP1;ratioP1;P1;durP2;ratioP2;P2;SDS_P1;SDS_P2;PMS_P1;PMS_P2;Temp;Humidity;BMP_temperature;BMP_pressure;BME280_temperature;BME280_humidity;BME280_pressure;Samples;Min_cycle;Max_cycle;Signal;HPM_P1;HPM_P2
2022/06/20 00:01:32;;;;;;;22.93;6.25;;;;;;;21.99;53.53;99558.04;2115836;83;28630;-72
2022/06/20 00:04:34;;;;;;;17.12;6.20;;;;;;;21.96;53.91;99565.69;2144437;82;31031;-72
2022/06/20 00:07:35;;;;;;;11.95;6.08;;;;;;;21.91;54.04;99563.99;2144486;83;33089;-71
2022/06/20 00:10:40;;;;;;;18.00;6.10;;;;;;;21.89;54.08;99557.85;2145103;83;29459;-71
2022/06/20 00:13:46;;;;;;;14.18;5.70;;;;;;;21.88;54.43;99556.14;2140261;82;27647;-72
2022/06/20 00:16:48;;;;;;;14.98;5.35;;;;;;;21.84;54.49;99553.75;2108426;83;28420;-70
2022/06/20 00:19:50;;;;;;;19.95;6.15;;;;;;;21.82;54.66;99544.88;2108377;84;31847;-69
2022/06/20 00:22:53;;;;;;;13.90;6.60;;;;;;;21.80;55.10;99543.35;2108509;84;33064;-70
2022/06/20 00:25:55;;;;;;;20.88;6.17;;;;;;;21.77;55.02;99544.52;2108402;84;29320;-69
2022/06/20 00:28:57;;;;;;;14.53;6.05;;;;;;;21.75;55.39;99542.50;2108594;84;27616;-71
2022/06/20 00:31:59;;;;;;;19.02;6.08;;;;;;;21.74;55.31;99548.10;2108437;84;28713;-71
2022/06/20 00:35:02;;;;;;;21.17;7.12;;;;;;;21.70;55.69;99539.41;2108871;84;31019;-72
2022/06/20 00:38:09;;;;;;;12.50;6.78;;;;;;;21.68;55.63;99541.45;2103838;84;28717;-71
2022/06/20 00:41:22;;;;;;;18.35;5.90;;;;;;;21.66;55.80;99548.94;2090836;82;29237;-71
2022/06/20 00:44:34;;;;;;;11.57;6.08;;;;;;;21.62;55.86;99544.83;2101985;83;27664;-71
2022/06/20 00:47:36;;;;;;;17.77;6.53;;;;;;;21.58;55.98;99550.27;2099546;83;29553;-71
2022/06/20 00:50:38;;;;;;;34.00;7.67;;;;;;;21.54;56.12;99557.90;2090564;85;31842;-71
2022/06/20 00:53:54;;;;;;;18.50;7.15;;;;;;;21.50;56.41;99551.09;2090560;85;32922;-72
2022/06/20 00:57:07;;;;;;;18.40;7.25;;;;;;;21.46;56.46;99549.72;2090055;85;29339;-72
2022/06/20 01:00:14;;;;;;;12.68;6.15;;;;;;;21.41;56.51;99544.77;2090789;84;27717;-72
2022/06/20 01:03:23;;;;;;;17.62;7.42;;;;;;;21.37;56.76;99546.11;2034104;87;29429;-71
2022/06/20 01:06:30;;;;;;;16.90;6.40;;;;;;;21.30;57.09;99543.19;2090643;85;31839;-71
2022/06/20 01:09:35;;;;;;;15.38;6.65;;;;;;;21.27;57.03;99545.37;2034116;87;32963;-69
2022/06/20 01:12:48;;;;;;;16.02;6.67;;;;;;;21.23;57.26;99544.85;2090359;85;29583;-71
2022/06/20 01:15:53;;;;;;;21.62;6.83;;;;;;;21.16;57.36;99541.94;2064647;86;27690;-71
2022/06/20 01:18:57;;;;;;;21.77;6.25;;;;;;;21.12;57.67;99541.91;2126194;83;28112;-69
2022/06/20 01:22:02;;;;;;;13.53;7.03;;;;;;;21.09;57.85;99555.88;2068360;86;35297;-70
2022/06/20 01:25:44;;;;;;;18.67;7.53;;;;;;;21.05;58.20;99549.88;2068294;86;32992;-69
2022/06/20 01:28:49;;;;;;;18.00;7.15;;;;;;;21.03;58.38;99554.64;2126261;83;29302;-70
2022/06/20 01:31:55;;;;;;;23.20;7.25;;;;;;;20.99;58.50;99561.94;2045579;86;28282;-71
2022/06/20 01:34:59;;;;;;;19.37;6.83;;;;;;;20.95;58.84;99564.98;2126179;83;28699;-70
2022/06/20 01:38:04;;;;;;;18.07;6.85;;;;;;;20.91;58.84;99570.42;2068324;86;31029;-69
2022/06/20 01:44:26;;;;;;;14.43;7.20;;;;;;;20.83;59.18;99593.50;2151700;82;29404;-69
2022/06/20 01:47:29;;;;;;;18.05;8.08;;;;;;;20.82;59.85;99595.88;2131181;82;27711;-70
2022/06/20 01:50:32;;;;;;;18.90;7.33;;;;;;;20.77;59.90;99592.28;2130959;83;28648;-70
2022/06/20 01:53:34;;;;;;;15.23;7.58;;;;;;;20.74;60.06;99607.53;2130915;83;31029;-71
2022/06/20 01:56:36;;;;;;;15.63;7.58;;;;;;;20.70;60.72;99606.14;2130860;83;33911;-70
2022/06/20 01:59:43;;;;;;;18.42;8.88;;;;;;;20.66;61.11;99615.66;2130910;83;29323;-69
2022/06/20 02:02:50;;;;;;;19.42;8.00;;;;;;;20.60;61.76;99618.48;2130968;83;27664;-70
2022/06/20 02:05:55;;;;;;;19.77;8.25;;;;;;;20.57;61.61;99620.19;2130450;83;29717;-71
2022/06/20 02:08:58;;;;;;;23.85;8.53;;;;;;;20.53;62.60;99632.39;2131197;83;31252;-70
2022/06/20 02:12:00;;;;;;;19.20;9.08;;;;;;;20.50;62.78;99636.78;2132916;82;33190;-69
2022/06/20 02:15:04;;;;;;;17.62;9.48;;;;;;;20.46;63.17;99651.70;2131042;82;29338;-70
2022/06/20 02:18:07;;;;;;;14.58;8.53;;;;;;;20.41;63.52;99661.70;2131258;83;27605;-70
2022/06/20 02:21:14;;;;;;;22.90;10.50;;;;;;;20.38;63.76;99657.08;2108625;83;28742;-70
2022/06/20 02:24:19;;;;;;;19.17;10.18;;;;;;;20.32;64.09;99654.48;2131135;83;31021;-71
2022/06/20 02:27:31;;;;;;;21.55;10.15;;;;;;;20.27;64.50;99654.92;2131224;83;32951;-70
2022/06/20 02:30:35;;;;;;;18.12;10.08;;;;;;;20.22;64.53;99657.77;2129112;83;29381;-71
2022/06/20 02:33:36;;;;;;;22.70;10.80;;;;;;;20.18;64.75;99662.67;2131257;83;27740;-71
2022/06/20 02:36:38;;;;;;;24.90;11.38;;;;;;;20.13;65.83;99656.83;2130913;83;28032;-70
2022/06/20 02:39:42;;;;;;;19.52;11.20;;;;;;;20.08;66.01;99667.33;2126873;83;31021;-71
2022/06/20 02:42:49;;;;;;;21.90;13.18;;;;;;;20.03;65.88;99671.84;2144093;83;33021;-72
2022/06/20 02:45:53;;;;;;;20.88;12.28;;;;;;;20.00;66.55;99665.37;2144822;83;29488;-71
2022/06/20 02:48:56;;;;;;;21.93;11.43;;;;;;;19.96;66.42;99658.53;2145020;82;27737;-68
2022/06/20 02:51:58;;;;;;;26.33;13.65;;;;;;;19.93;66.44;99671.94;2144682;82;29106;-70
2022/06/20 02:55:00;;;;;;;25.50;12.37;;;;;;;19.91;66.63;99673.95;2116019;83;31856;-70
2022/06/20 02:58:07;;;;;;;25.92;12.50;;;;;;;19.88;67.39;99679.69;2144686;83;32946;-70
2022/06/20 03:01:18;;;;;;;22.75;11.93;;;;;;;19.87;66.92;99675.25;2142849;83;29341;-72
2022/06/20 03:04:21;;;;;;;18.12;11.03;;;;;;;19.88;67.10;99681.89;2144938;82;27780;-72
2022/06/20 03:07:28;;;;;;;20.02;11.35;;;;;;;19.87;68.01;99675.25;2144675;82;29499;-72
2022/06/20 03:10:42;;;;;;;28.98;13.60;;;;;;;19.85;68.53;99676.75;2128970;83;31019;-72
2022/06/20 03:13:44;;;;;;;23.47;12.43;;;;;;;19.82;68.12;99674.33;2108219;83;33692;-70
2022/06/20 03:16:46;;;;;;;24.40;11.95;;;;;;;19.80;68.68;99674.98;2108431;84;29331;-72
2022/06/20 03:19:56;;;;;;;21.17;11.45;;;;;;;19.79;68.14;99674.63;2108574;83;27689;-73
2022/06/20 03:23:22;;;;;;;21.85;12.15;;;;;;;19.81;68.01;99674.45;2108541;84;28829;-74
2022/06/20 03:26:27;;;;;;;20.85;13.05;;;;;;;19.82;68.20;99669.38;2099665;84;31185;-72
2022/06/20 03:29:29;;;;;;;21.68;11.75;;;;;;;19.81;68.44;99659.02;2115405;84;32433;-71
2022/06/20 03:32:31;;;;;;;20.02;12.50;;;;;;;19.85;68.13;99656.36;2114940;83;29335;-71
2022/06/20 03:35:35;;;;;;;24.60;12.35;;;;;;;19.91;68.24;99651.33;2115095;84;27754;-71
2022/06/20 03:38:39;;;;;;;21.62;11.78;;;;;;;19.94;68.37;99645.59;2115042;82;32214;-72
2022/06/20 03:41:41;;;;;;;19.40;12.73;;;;;;;19.94;68.25;99645.08;2135323;83;31023;-72
2022/06/20 03:44:50;;;;;;;25.52;12.82;;;;;;;19.97;68.05;99639.85;2141421;83;33658;-72
2022/06/20 03:48:00;;;;;;;18.35;11.68;;;;;;;20.00;68.26;99649.06;2141282;83;29329;-72
2022/06/20 03:51:07;;;;;;;16.77;11.15;;;;;;;20.08;68.13;99649.66;2141629;83;27635;-71
2022/06/20 03:54:26;;;;;;;21.60;11.97;;;;;;;20.17;67.98;99643.28;2141538;83;28805;-71
2022/06/20 03:57:42;;;;;;;15.18;11.73;;;;;;;20.29;67.87;99635.23;2140516;83;32172;-72
2022/06/20 04:00:59;;;;;;;14.93;11.20;;;;;;;20.45;67.90;99643.19;2138980;83;32967;-72
2022/06/20 04:04:07;;;;;;;17.57;10.60;;;;;;;20.53;67.57;99646.48;2114095;84;29416;-71
2022/06/20 04:07:24;;;;;;;15.35;10.30;;;;;;;20.59;67.32;99645.38;2114529;84;27607;-71
2022/06/20 04:10:58;;;;;;;13.53;9.85;;;;;;;20.74;67.33;99658.41;2115282;82;28646;-72
2022/06/20 04:14:23;;;;;;;11.97;9.87;;;;;;;20.91;67.16;99648.52;2114642;84;31118;-72
2022/06/20 04:21:07;;;;;;;12.35;10.45;;;;;;;21.14;66.65;99654.80;2114194;83;29444;-72
2022/06/20 04:24:30;;;;;;;13.32;9.45;;;;;;;21.17;66.35;99653.13;2114666;84;27659;-71
2022/06/20 04:27:44;;;;;;;14.43;9.10;;;;;;;21.19;66.32;99648.34;2112731;84;29414;-72
2022/06/20 04:31:18;;;;;;;11.40;8.70;;;;;;;21.18;66.23;99640.69;2114497;84;31813;-72
2022/06/20 04:34:42;;;;;;;12.07;8.55;;;;;;;21.29;66.21;99639.56;2114407;84;33774;-72
2022/06/20 04:37:50;;;;;;;14.00;9.70;;;;;;;21.32;65.98;99635.16;2114588;84;29337;-72
2022/06/20 04:41:18;;;;;;;15.98;9.28;;;;;;;21.40;65.93;99632.45;2116604;82;27642;-73
2022/06/20 04:44:53;;;;;;;13.98;8.38;;;;;;;21.45;65.73;99627.87;2115014;82;28693;-73
2022/06/20 04:48:02;;;;;;;13.30;9.10;;;;;;;21.60;65.79;99634.06;2036695;87;31930;-72
2022/06/20 04:51:22;;;;;;;14.90;9.38;;;;;;;21.74;65.58;99637.58;2036582;87;33187;-73
2022/06/20 04:54:32;;;;;;;17.80;9.43;;;;;;;21.88;65.37;99641.52;2036779;87;29348;-72
2022/06/20 04:57:48;;;;;;;14.10;9.28;;;;;;;21.91;65.06;99627.55;2036621;87;27757;-71
2022/06/20 05:00:52;;;;;;;11.80;8.55;;;;;;;21.99;64.90;99622.13;2036225;87;28187;-71
2022/06/20 05:03:58;;;;;;;11.70;8.43;;;;;;;22.15;65.07;99623.18;2038670;86;31042;-71
2022/06/20 05:07:07;;;;;;;12.98;8.25;;;;;;;22.35;64.99;99619.61;2070677;86;32961;-70
2022/06/20 05:10:20;;;;;;;16.02;9.18;;;;;;;22.59;64.79;99613.33;2070468;86;29410;-70
2022/06/20 05:13:30;;;;;;;14.95;8.35;;;;;;;22.78;64.39;99612.63;2070668;86;27728;-70
2022/06/20 05:16:39;;;;;;;16.00;9.60;;;;;;;22.93;64.15;99614.66;2070065;86;28595;-70
2022/06/20 05:19:45;;;;;;;19.95;9.28;;;;;;;23.04;63.73;99611.05;2069954;86;31109;-71
2022/06/20 05:22:52;;;;;;;13.98;8.88;;;;;;;23.16;63.51;99611.53;2058407;86;33877;-71
2022/06/20 05:25:55;;;;;;;11.88;8.73;;;;;;;23.21;63.07;99592.73;2105349;82;29342;-71
2022/06/20 05:28:59;;;;;;;13.05;8.55;;;;;;;23.45;63.20;99590.95;2114992;84;28242;-71
2022/06/20 05:32:03;;;;;;;13.83;8.70;;;;;;;23.69;62.79;99592.38;2114938;84;28647;-71
2022/06/20 05:35:16;;;;;;;14.28;8.65;;;;;;;24.04;62.56;99616.97;2084677;84;31150;-71
2022/06/20 05:38:38;;;;;;;11.33;7.97;;;;;;;24.19;62.05;99641.69;2114923;84;32918;-72
2022/06/20 05:41:40;;;;;;;17.62;9.05;;;;;;;24.41;61.61;99628.16;2113519;81;30151;-72
2022/06/20 05:44:43;;;;;;;13.93;7.85;;;;;;;24.85;61.51;99627.98;2112059;84;27595;-73
2022/06/20 05:47:52;;;;;;;10.63;7.60;;;;;;;25.03;60.59;99635.34;2112000;84;28706;-72
2022/06/20 05:51:01;;;;;;;14.00;8.33;;;;;;;25.22;60.29;99619.91;2111763;84;32031;-73
2022/06/20 05:54:11;;;;;;;12.80;8.68;;;;;;;25.83;60.02;99619.66;2138734;82;33181;-73
2022/06/20 05:57:20;;;;;;;11.60;7.87;;;;;;;26.36;59.06;99619.94;2148548;82;29321;-73
2022/06/20 06:00:27;;;;;;;12.73;8.00;;;;;;;26.88;58.71;99607.41;2148497;82;27635;-73
2022/06/20 06:03:46;;;;;;;13.78;7.05;;;;;;;27.70;57.62;99607.69;2147872;82;28670;-72
2022/06/20 06:06:59;;;;;;;15.48;8.63;;;;;;;28.01;56.32;99604.92;2148275;82;31014;-73
2022/06/20 06:10:25;;;;;;;13.08;7.78;;;;;;;28.50;56.15;99583.61;2145647;82;33127;-72
2022/06/20 06:13:46;;;;;;;12.07;7.97;;;;;;;28.88;54.27;99577.47;2148146;82;29987;-72
2022/06/20 06:17:02;;;;;;;11.88;8.38;;;;;;;29.01;53.60;99586.77;2148438;82;27697;-73
2022/06/20 06:20:10;;;;;;;14.40;8.88;;;;;;;29.41;52.98;99586.16;2147802;82;28661;-72
2022/06/20 06:23:13;;;;;;;10.90;7.90;;;;;;;29.75;52.24;99569.46;2132173;82;31947;-71
2022/06/20 06:26:16;;;;;;;15.58;8.13;;;;;;;29.82;51.38;99558.37;2112202;82;33134;-72
2022/06/20 06:29:41;;;;;;;12.27;8.03;;;;;;;30.25;51.27;99552.70;2112149;84;29324;-71
2022/06/20 06:32:58;;;;;;;;;;;;;;;30.91;49.98;99554.59;2114625;84;27697;-72
2022/06/20 06:36:04;;;;;;;16.23;8.10;;;;;;;31.74;49.06;99547.37;2111889;84;28408;-72
2022/06/20 06:39:17;;;;;;;12.80;7.58;;;;;;;32.30;48.12;99531.92;2111479;84;31004;-68
2022/06/20 06:42:20;;;;;;;10.28;6.80;;;;;;;32.81;47.34;99533.19;2113682;82;33036;-68
2022/06/20 06:45:25;;;;;;;14.73;8.03;;;;;;;33.28;45.21;99528.11;2114788;83;30178;-68
2022/06/20 06:48:41;;;;;;;13.45;8.20;;;;;;;33.26;44.77;99526.12;2115089;83;28211;-69
2022/06/20 06:52:17;;;;;;;12.43;8.20;;;;;;;33.11;44.25;99516.08;2114887;83;28669;-69
2022/06/20 06:55:36;;;;;;;12.85;7.72;;;;;;;33.36;43.62;99501.06;2114753;84;31029;-70
2022/06/20 06:59:01;;;;;;;9.90;7.40;;;;;;;33.79;43.42;99482.45;2117308;82;33897;-69
2022/06/20 07:02:07;;;;;;;17.12;8.60;;;;;;;34.13;41.88;99466.92;2115095;83;29406;-70
2022/06/20 07:05:21;;;;;;;12.23;7.72;;;;;;;34.16;41.76;99465.03;2115107;83;27703;-69
2022/06/20 07:08:29;;;;;;;11.05;8.30;;;;;;;34.59;41.25;99471.83;2114900;83;28830;-70
2022/06/20 07:11:32;;;;;;;19.05;8.05;;;;;;;34.91;40.31;99456.41;2114699;84;31955;-70
2022/06/20 07:14:41;;;;;;;23.92;7.85;;;;;;;35.12;40.23;99450.57;2114838;83;33554;-69
2022/06/20 07:18:04;;;;;;;16.45;8.15;;;;;;;35.34;39.70;99444.14;2114787;83;29329;-70
2022/06/20 07:21:05;;;;;;;19.10;8.33;;;;;;;35.49;38.42;99436.55;2114541;84;27677;-70
2022/06/20 07:24:15;;;;;;;16.20;8.00;;;;;;;35.62;37.38;99424.11;2115532;82;28632;-69
2022/06/20 07:27:26;;;;;;;12.85;7.85;;;;;;;35.66;37.19;99423.31;2115092;82;31056;-70
2022/06/20 07:30:33;;;;;;;11.50;7.67;;;;;;;35.49;37.15;99417.05;2114679;82;33745;-69
2022/06/20 07:33:42;;;;;;;13.13;7.45;;;;;;;35.64;37.67;99408.83;2114679;84;29323;-69
2022/06/20 07:36:54;;;;;;;12.60;7.55;;;;;;;35.99;37.05;99394.91;2114885;84;27712;-70
2022/06/20 07:40:04;;;;;;;13.40;7.83;;;;;;;36.29;36.73;99390.66;2114783;83;29502;-69
2022/06/20 07:43:23;;;;;;;14.55;8.03;;;;;;;36.61;36.07;99396.72;2112312;81;31021;-69
2022/06/20 07:46:47;;;;;;;16.02;7.08;;;;;;;36.78;36.12;99399.86;2110938;84;32407;-70
2022/06/20 07:49:55;;;;;;;18.25;8.73;;;;;;;36.96;34.53;99405.53;2106298;84;29321;-70
2022/06/20 07:53:14;;;;;;;15.98;7.47;;;;;;;36.51;34.45;99405.59;2127739;82;27693;-70
2022/06/20 07:56:21;;;;;;;14.50;8.13;;;;;;;36.32;34.96;99415.77;2100042;84;28634;-70
2022/06/20 07:59:34;;;;;;;15.40;7.72;;;;;;;36.11;34.58;99403.08;2100156;84;31066;-70
2022/06/20 08:02:47;;;;;;;11.63;7.10;;;;;;;35.57;35.10;99389.55;2100710;84;33741;-70
2022/06/20 08:05:57;;;;;;;14.10;7.70;;;;;;;35.26;35.50;99398.11;2099903;84;30171;-70
2022/06/20 08:09:24;;;;;;;18.80;7.67;;;;;;;35.15;35.91;99398.55;2099964;84;28296;-70
2022/06/20 08:12:40;;;;;;;13.65;7.65;;;;;;;34.95;35.68;99402.77;2077892;84;29737;-71
2022/06/20 08:15:58;;;;;;;17.27;7.78;;;;;;;34.46;35.91;99395.18;2100052;84;31142;-70
2022/06/20 08:19:00;;;;;;;16.07;8.43;;;;;;;33.93;36.25;99377.95;2100252;84;32958;-69
2022/06/20 08:22:16;;;;;;;19.37;8.43;;;;;;;33.42;36.70;99378.77;2108889;83;29619;-69
2022/06/20 08:25:31;;;;;;;12.15;7.85;;;;;;;32.85;36.94;99363.78;2136251;83;27754;-69
2022/06/20 08:28:40;;;;;;;17.90;8.23;;;;;;;32.17;37.95;99365.31;2135341;83;28673;-69
2022/06/20 08:31:46;;;;;;;18.67;8.35;;;;;;;31.70;38.96;99382.72;2138160;82;31685;-69
2022/06/20 08:35:21;;;;;;;19.25;9.13;;;;;;;31.21;39.73;99362.38;2148400;82;32959;-70
2022/06/20 08:38:34;;;;;;;17.12;8.78;;;;;;;30.56;40.33;99327.91;2148611;82;29511;-70
2022/06/20 08:42:11;;;;;;;22.22;9.85;;;;;;;29.81;41.29;99349.05;2149031;80;27699;-69
2022/06/20 08:45:18;;;;;;;19.23;8.83;;;;;;;29.24;42.62;99371.97;2150547;82;29492;-69
2022/06/20 08:48:48;;;;;;;21.77;9.80;;;;;;;28.74;43.72;99380.92;2151290;82;31040;-69
2022/06/20 08:52:24;;;;;;;18.42;10.25;;;;;;;28.32;45.21;99350.93;2150766;82;33763;-68
2022/06/20 08:55:40;;;;;;;17.10;10.13;;;;;;;27.90;46.35;99334.67;2151567;82;29363;-70
2022/06/20 08:59:15;;;;;;;14.43;9.43;;;;;;;27.50;47.72;99364.98;2151364;82;27773;-69
2022/06/20 09:03:01;;;;;;;20.67;10.07;;;;;;;27.18;48.75;99477.42;2151751;82;28757;-68
2022/06/20 09:06:34;;;;;;;16.80;10.93;;;;;;;26.79;49.85;99492.16;2151154;82;31199;-68
2022/06/20 09:10:04;;;;;;;14.50;9.60;;;;;;;26.28;50.58;99446.55;2151439;82;32980;-68
2022/06/20 09:13:29;;;;;;;16.12;10.25;;;;;;;25.89;51.47;99429.55;2151379;82;29328;-68
2022/06/20 09:16:56;;;;;;;17.40;10.10;;;;;;;25.52;52.00;99377.20;2151198;82;27739;-68
2022/06/20 09:20:09;;;;;;;15.35;10.75;;;;;;;25.27;52.96;99386.64;2151516;82;29473;-69
2022/06/20 09:23:22;;;;;;;19.42;11.03;;;;;;;25.03;54.50;99376.89;2125658;81;31024;-69
2022/06/20 09:26:54;;;;;;;17.00;10.50;;;;;;;24.84;54.51;99371.49;2111792;84;33354;-69
2022/06/20 09:30:08;;;;;;;18.67;10.80;;;;;;;24.70;55.41;99359.55;2114721;84;29333;-70
2022/06/20 09:33:27;;;;;;;17.12;10.58;;;;;;;24.60;56.25;99345.25;2114261;84;27615;-69
2022/06/20 09:37:06;;;;;;;18.85;11.70;;;;;;;24.63;57.09;99332.05;2114619;84;29119;-71
2022/06/20 09:40:44;;;;;;;18.48;11.70;;;;;;;24.78;57.32;99330.66;2114860;84;31045;-70
2022/06/20 09:44:11;;;;;;;22.02;11.55;;;;;;;24.91;57.00;99348.28;2114280;81;33006;-70
2022/06/20 09:47:49;;;;;;;19.45;11.05;;;;;;;25.06;56.99;99390.22;2114692;84;28745;-70
2022/06/20 09:51:05;;;;;;;21.48;11.55;;;;;;;25.14;57.00;99390.62;2114827;84;27687;-70
2022/06/20 09:54:51;;;;;;;20.70;11.68;;;;;;;25.13;57.16;99446.47;2135537;82;29493;-71
2022/06/20 09:57:58;;;;;;;17.67;11.73;;;;;;;25.05;57.39;99456.16;2114703;84;31120;-71
2022/06/20 10:01:20;;;;;;;15.78;11.38;;;;;;;24.95;57.63;99434.03;2115038;83;33374;-70
2022/06/20 10:04:36;;;;;;;17.32;12.00;;;;;;;24.87;57.92;99456.04;2114876;83;30150;-70
2022/06/20 10:07:58;;;;;;;19.90;12.00;;;;;;;24.84;58.19;99476.97;2114913;83;27636;-71
2022/06/20 10:11:14;;;;;;;21.82;12.28;;;;;;;24.81;58.55;99514.35;2115641;83;29135;-70
2022/06/20 10:14:36;;;;;;;17.75;12.68;;;;;;;24.82;58.97;99522.91;2114626;83;31337;-70
2022/06/20 10:18:00;;;;;;;21.50;12.35;;;;;;;24.81;58.94;99501.49;2114507;84;32966;-70
2022/06/20 10:21:33;;;;;;;23.57;12.82;;;;;;;24.78;59.41;99496.92;2117716;82;29187;-70
2022/06/20 10:24:46;;;;;;;24.98;13.65;;;;;;;24.70;59.60;99478.16;2151450;82;27601;-69
2022/06/20 10:28:14;;;;;;;24.23;16.20;;;;;;;24.51;60.01;99504.19;2151408;82;28885;-69
2022/06/20 10:31:42;;;;;;;24.27;15.50;;;;;;;24.21;60.49;99503.27;2151117;82;31786;-69
2022/06/20 10:35:27;;;;;;;20.88;15.75;;;;;;;23.75;60.93;99520.52;2151203;82;33694;-68
2022/06/20 10:38:49;;;;;;;21.65;15.65;;;;;;;23.18;62.20;99518.44;2120330;83;30112;-69
2022/06/20 10:42:17;;;;;;;24.47;15.90;;;;;;;22.49;61.92;99513.03;2100279;83;27781;-68
2022/06/20 10:45:56;;;;;;;24.90;15.32;;;;;;;21.97;62.60;99492.39;2126437;83;29487;-70
2022/06/20 10:49:23;;;;;;;23.30;16.85;;;;;;;21.49;64.81;99509.34;2126527;83;31082;-68
2022/06/20 10:53:01;;;;;;;20.27;15.93;;;;;;;20.97;65.04;99534.88;2113787;83;33959;-68
2022/06/20 10:56:30;;;;;;;21.45;16.40;;;;;;;20.60;65.70;99555.05;2053774;86;29482;-66
2022/06/20 10:59:40;;;;;;;21.40;15.72;;;;;;;20.41;66.35;99552.03;2053739;86;27911;-67
2022/06/20 11:02:59;;;;;;;20.57;16.82;;;;;;;20.16;68.18;99496.94;2053878;86;28822;-67
2022/06/20 11:06:31;;;;;;;21.50;16.27;;;;;;;19.96;69.41;99481.82;2053247;86;31320;-66
2022/06/20 11:09:51;;;;;;;24.95;16.95;;;;;;;19.74;70.03;99460.87;2052986;86;32916;-67
2022/06/20 11:13:34;;;;;;;20.32;17.05;;;;;;;19.57;69.47;99475.66;2021288;88;29379;-67
2022/06/20 11:17:02;;;;;;;22.37;17.48;;;;;;;19.53;70.05;99515.53;2038187;87;27781;-67
2022/06/20 11:20:34;;;;;;;21.10;16.45;;;;;;;19.55;71.22;99507.56;2038607;87;28685;-66
2022/06/20 11:24:04;;;;;;;22.93;18.20;;;;;;;19.52;71.46;99525.56;2072348;85;31132;-66
2022/06/20 11:27:23;;;;;;;22.82;18.45;;;;;;;19.53;71.52;99517.73;2072302;85;32982;-67
2022/06/20 11:30:51;;;;;;;28.25;19.15;;;;;;;19.68;72.16;99513.98;2097122;84;29508;-66
2022/06/20 11:34:40;;;;;;;25.48;18.60;;;;;;;19.91;72.47;99527.15;2112418;83;27976;-68
2022/06/20 11:38:16;;;;;;;21.87;19.60;;;;;;;20.06;72.10;99521.16;2112416;83;29533;-67
2022/06/20 11:41:26;;;;;;;26.87;19.05;;;;;;;20.23;72.66;99528.92;2112254;83;31532;-67
2022/06/20 11:44:56;;;;;;;24.70;17.23;;;;;;;20.47;72.92;99511.92;2095282;84;32936;-68
2022/06/20 11:48:34;;;;;;;24.87;17.02;;;;;;;20.77;73.24;99494.77;2093362;84;29218;-68
2022/06/20 11:52:02;;;;;;;21.33;16.80;;;;;;;21.13;72.72;99476.89;2126603;82;27641;-69
2022/06/20 11:55:35;;;;;;;18.30;15.72;;;;;;;21.37;72.26;99482.91;2151183;82;28663;-69
2022/06/20 11:59:04;;;;;;;17.98;15.10;;;;;;;21.55;72.02;99501.01;2151332;82;30997;-69
2022/06/20 12:02:21;;;;;;;17.40;13.55;;;;;;;21.63;71.46;99476.54;2150750;82;33856;-68
2022/06/20 12:05:40;;;;;;;16.32;13.25;;;;;;;21.81;70.97;99472.28;2151338;82;29967;-69
2022/06/20 12:09:00;;;;;;;14.38;12.90;;;;;;;21.87;70.18;99484.91;2151327;81;27644;-68
2022/06/20 12:12:07;;;;;;;14.73;11.78;;;;;;;21.97;69.77;99501.44;2141814;82;29533;-68
2022/06/20 12:15:42;;;;;;;17.05;12.50;;;;;;;21.89;69.36;99473.31;2151326;81;31165;-68
2022/06/20 12:26:03;;;;;;;16.40;12.00;;;;;;;21.45;69.19;99525.68;2085828;84;27810;-68
2022/06/20 12:29:11;;;;;;;13.10;11.60;;;;;;;21.30;69.71;99500.09;2105231;84;28727;-68
2022/06/20 12:32:25;;;;;;;15.68;12.13;;;;;;;21.16;69.92;99457.50;2105242;84;31851;-68
2022/06/20 12:35:38;;;;;;;18.80;12.73;;;;;;;21.12;69.85;99446.58;2082042;84;33031;-69
2022/06/20 12:38:46;;;;;;;15.60;11.08;;;;;;;21.10;69.82;99466.31;2105618;84;29996;-69
2022/06/20 12:41:59;;;;;;;17.82;13.08;;;;;;;21.11;70.00;99506.16;2105206;84;27634;-70
2022/06/20 12:45:26;;;;;;;15.43;13.32;;;;;;;21.18;70.05;99534.45;2084181;83;29614;-71
2022/06/20 12:48:56;;;;;;;13.62;12.23;;;;;;;21.33;70.37;99533.83;2083591;85;32055;-69
2022/06/20 12:52:28;;;;;;;15.25;13.00;;;;;;;21.66;70.83;99530.73;2093724;84;33803;-71
2022/06/20 12:55:38;;;;;;;13.88;12.37;;;;;;;21.92;70.27;99539.80;2132022;82;30259;-70
2022/06/20 12:59:38;;;;;;;16.82;13.40;;;;;;;21.99;69.80;99540.31;2151422;82;27620;-70
2022/06/20 13:03:25;;;;;;;15.55;12.90;;;;;;;22.07;69.58;99544.92;2154139;82;28688;-70
2022/06/20 13:06:53;;;;;;;14.95;13.10;;;;;;;22.29;69.29;99516.09;2154284;82;31558;-69
2022/06/20 13:10:24;;;;;;;13.72;11.70;;;;;;;22.51;68.60;99490.48;2154085;82;33746;-69
2022/06/20 13:13:42;;;;;;;14.55;11.75;;;;;;;22.82;68.74;99489.73;2153258;82;28261;-69
2022/06/20 13:17:07;;;;;;;13.98;11.93;;;;;;;23.13;68.29;99494.39;2153847;82;27612;-70
2022/06/20 13:20:48;;;;;;;14.85;11.90;;;;;;;23.35;67.57;99493.27;2117506;84;29617;-70
2022/06/20 13:24:13;;;;;;;13.18;11.73;;;;;;;23.59;67.67;99492.79;2118277;82;31921;-70
2022/06/20 13:28:00;;;;;;;13.45;11.97;;;;;;;23.76;66.96;99493.02;2108395;84;32969;-71
2022/06/20 13:31:15;;;;;;;16.32;12.47;;;;;;;23.86;66.52;99498.23;2106995;84;30209;-70
2022/06/20 13:34:28;;;;;;;15.28;11.55;;;;;;;23.86;66.13;99476.36;2108777;84;27699;-69
2022/06/20 13:37:44;;;;;;;15.78;11.90;;;;;;;23.83;65.98;99468.52;2108330;84;28730;-70
2022/06/20 13:40:57;;;;;;;16.05;11.15;;;;;;;23.87;65.91;99477.19;2108313;83;31104;-68
2022/06/20 13:44:13;;;;;;;14.43;11.22;;;;;;;24.11;66.14;99479.77;2106664;84;33192;-69
2022/06/20 13:47:30;;;;;;;13.38;10.45;;;;;;;24.34;66.02;99483.48;2034739;87;30189;-70
2022/06/20 13:50:37;;;;;;;18.27;12.07;;;;;;;24.46;65.43;99491.56;1969241;90;27775;-69
2022/06/20 13:53:56;;;;;;;14.23;10.53;;;;;;;24.50;65.00;99494.77;1987969;88;28695;-70
2022/06/20 13:57:21;;;;;;;15.60;11.30;;;;;;;24.46;64.71;99509.36;2001955;88;31895;-69
2022/06/20 14:00:25;;;;;;;;;;;;;;;24.38;64.27;99519.88;1998870;88;31744;-67
2022/06/20 14:03:30;;;;;;;20.30;13.53;;;;;;;24.47;63.71;99518.45;1961292;90;29376;-67
2022/06/20 14:06:56;;;;;;;24.45;13.40;;;;;;;24.49;63.32;99502.15;1961317;90;27853;-67
2022/06/20 14:09:59;;;;;;;21.77;13.53;;;;;;;24.59;63.25;99489.55;1961247;90;28724;-67
2022/06/20 14:13:07;;;;;;;18.45;14.55;;;;;;;24.58;62.35;99467.31;1961248;90;31062;-67
2022/06/20 14:16:29;;;;;;;17.17;13.83;;;;;;;24.47;61.56;99431.66;1961265;90;32453;-68
2022/06/20 14:19:41;;;;;;;24.72;14.35;;;;;;;24.52;62.29;99461.21;1961607;90;29399;-67
2022/06/20 14:22:50;;;;;;;24.92;17.48;;;;;;;24.57;61.60;99450.02;1951557;90;27764;-67
2022/06/20 14:25:57;;;;;;;25.40;17.98;;;;;;;24.56;61.03;99474.86;2005746;84;29517;-67
2022/06/20 14:29:02;;;;;;;27.25;17.57;;;;;;;24.43;60.82;99469.53;2108029;84;31200;-68
2022/06/20 14:32:16;;;;;;;18.67;14.55;;;;;;;24.31;60.48;99483.35;2081872;84;33048;-66
2022/06/20 14:35:32;;;;;;;18.57;14.15;;;;;;;24.02;60.61;99476.75;2108055;84;29339;-67
2022/06/20 14:38:45;;;;;;;19.73;13.88;;;;;;;23.73;60.64;99488.43;2104290;84;27840;-66
2022/06/20 14:42:04;;;;;;;18.10;14.03;;;;;;;23.47;60.87;99493.71;2107757;84;28708;-67
2022/06/20 14:45:17;;;;;;;17.75;12.55;;;;;;;23.23;61.10;99498.80;2000254;88;31164;-68
2022/06/20 14:48:27;;;;;;;15.20;12.40;;;;;;;22.95;61.32;99482.33;2000355;89;33012;-67
2022/06/20 14:51:40;;;;;;;13.65;12.25;;;;;;;22.64;61.45;99480.39;2000268;88;29504;-66
2022/06/20 14:55:02;;;;;;;14.30;11.75;;;;;;;22.34;62.35;99491.53;2018994;87;27917;-66
2022/06/20 14:58:16;;;;;;;16.65;12.18;;;;;;;22.06;62.92;99500.94;2041498;87;28507;-66
2022/06/20 15:01:42;;;;;;;16.67;9.78;;;;;;;21.74;63.36;99512.16;2029458;87;31482;-65
2022/06/20 15:04:53;;;;;;;9.30;6.92;;;;;;;21.46;63.99;99527.39;2040974;87;33434;-66
2022/06/20 15:08:12;;;;;;;9.20;6.35;;;;;;;21.00;64.73;99533.20;2040826;86;29337;-66
2022/06/20 15:11:39;;;;;;;7.90;7.10;;;;;;;20.64;64.79;99542.83;2000122;88;29619;-66
2022/06/20 15:14:50;;;;;;;10.70;7.67;;;;;;;20.29;65.71;99540.55;1999941;88;28677;-66
2022/06/20 15:18:22;;;;;;;8.75;6.87;;;;;;;19.93;66.30;99539.22;2000504;89;31043;-65